x

Neah Bay, - 6nm North Of Cape Flattery, Wa (traffic Separation Lighted Buoy) (46087) Weather Station

10:20pm - Mon 20th Oct 2014 All times are PDT. -7 hours from GMT.

  • Wind
    16mph, 20mph gusts
  • Sea Temp 59°f
  • 空気 Temp 56°f
  • Sea Pressure 1005.8mb
  • Neah Bay, - 6nm North Of Cape Flattery, Wa     (traffic Separation Lighted Buoy)
  • Neah Bay, - 6nm North Of Cape Flattery, Wa     (traffic Separation Lighted Buoy)

More Historic Weather Station data

Upgrade to MSW Pro to gain access to the past 30 days of data for over 8000 Wavebouys and Weather Stations around the globe.

Join Pro

Comparision Forecast

View Surf forecast
   
Mon 10/20 10:20pm  -   -   -  16 20 mph 1005.8mb 59f 56f
9:50pm 12ft 13s 10s 16 18 mph 1005.6mb 59f 56f
9:20pm  -   -   -  18 25 mph 1005.4mb 59f 57f
8:50pm 9.5ft 15s 9s 16 20 mph 1005.6mb 59f 56f
8:20pm  -   -   -  18 25 mph 1005.6mb 59f 57f
7:50pm 10ft 15s 11s 16 20 mph 1005.9mb 59f 57f
7:20pm  -   -   -  13 16 mph 1006mb 59f 57f
6:50pm 9.5ft 15s 10s 16 20 mph 1005.9mb 59f 57f
6:20pm  -   -   -  13 16 mph 1005.9mb 59f 58f
5:50pm 9ft 14s 10s 11 18 mph 1005.8mb 59f 58f
5:20pm  -   -   -  16 20 mph 1005.6mb 59f 58f
4:50pm 8.5ft 16s 10s 11 16 mph 1005.7mb 59f 59f
4:20pm  -   -   -  13 18 mph 1005.8mb 59f 60f
3:50pm 7.5ft 11s 9s 16 20 mph 1005.7mb 59f 59f
3:20pm  -   -   -  13 16 mph 1005.8mb 59f 59f
2:50pm 7ft 15s 9s 20 25 mph 1005.5mb 59f 58f
2:20pm  -   -   -  11 16 mph 1005.4mb 59f 59f
1:50pm 7ft 14s 9s 9 13 mph 1005.5mb 59f 59f
1:20pm  -   -   -  11 16 mph 1005.5mb 59f 60f
12:50pm 8ft 15s 9s 13 16 mph 1005.6mb 59f 60f
12:20pm  -   -   -  9 13 mph 1005.7mb 59f 60f
11:50am 9ft 14s 9s 11 13 mph 1005.4mb 59f 59f
11:20am  -   -   -  13 18 mph 1005.3mb 59f 59f
10:50am 10ft 15s 9s 11 16 mph 1005.3mb 59f 59f
10:20am  -   -   -  11 16 mph 1005.3mb 59f 58f
9:50am 10ft 14s 10s 9 13 mph 1005.3mb 59f 58f
9:20am  -   -   -  11 13 mph 1005.1mb 59f 58f
8:50am 12ft 12s 10s 9 11 mph 1004.8mb 59f 58f
8:20am  -   -   -  9 11 mph 1004.3mb 59f 58f
7:50am 11.5ft 14s 10s 13 18 mph 1004mb 59f 58f
7:20am  -   -   -  13 18 mph 1003.9mb 59f 59f
6:50am 12ft 14s 10s 13 16 mph 1003.8mb 59f 58f
6:20am  -   -   -  11 13 mph 1003.9mb 59f 58f
5:50am 10.5ft 13s 10s 13 18 mph 1003.9mb 59f 58f
5:20am  -   -   -  16 18 mph 1003.8mb 59f 58f
4:50am 11ft 14s 10s 16 20 mph 1003.7mb 59f 58f
4:20am  -   -   -  13 18 mph 1003.7mb 59f 57f
3:50am 10.5ft 15s 10s 11 16 mph 1003.7mb 58f 57f
3:20am  -   -   -  11 16 mph 1003.8mb 58f 57f
2:50am 10ft 13s 10s 13 18 mph 1003.8mb 58f 56f
2:20am  -   -   -  11 16 mph 1003.9mb 58f 56f
1:50am 10.5ft 13s 10s 13 16 mph 1003.8mb 58f 56f
1:20am  -   -   -  13 16 mph 1003.5mb 58f 57f
12:50am 11ft 11s 10s 13 18 mph 1003.5mb 58f 57f
12:20am  -   -   -  11 16 mph 1003.3mb 58f 56f
Sun 10/19 11:50pm 9.5ft 11s 10s 11 16 mph 1003.7mb 58f 57f
11:20pm  -   -   -  11 16 mph 1003.5mb 58f 57f
10:50pm 9.5ft 11s 10s 11 16 mph 1003.9mb 58f 57f
10:20pm  -   -   -  13 18 mph 1003.6mb 58f 56f
9:50pm 10ft 11s  -  13 16 mph 1003.7mb 58f 56f
8:50pm 8.5ft 11s 9s 11 16 mph 1004mb 58f 56f
8:20pm  -   -   -  9 16 mph 1004.2mb 58f 56f
7:50pm 9ft 11s 9s 9 13 mph 1004.4mb 59f 56f
7:20pm  -   -   -  7 11 mph 1004.3mb 59f 56f
6:50pm 9ft 11s 8s 9 11 mph 1003.9mb 59f 56f
6:20pm  -   -   -  16 20 mph 1003.8mb 59f 57f
5:50pm 10ft 11s 8s 16 18 mph 1003.3mb 59f 56f
5:20pm  -   -   -  20 27 mph 1003.5mb 59f 57f
4:50pm 11ft 10s 8s 22 27 mph 1003.1mb 59f 57f
4:20pm  -   -   -  22 31 mph 1002.9mb 59f 58f
3:50pm 11.5ft 11s 7s 29 38 mph 1002.5mb 58f 60f
3:20pm  -   -   -  29 40 mph 1002.4mb 58f 60f
2:50pm  -   -   -  25 34 mph 1002.7mb 58f 60f
2:20pm  -   -   -  25 34 mph 1002.5mb 58f 64f
1:50pm 13ft 11s 8s 27 38 mph 1002.5mb 59f 64f
1:20pm  -   -   -  31 40 mph 1002.6mb 59f 64f
12:50pm 10ft 11s 7s 25 38 mph 1003mb 59f 64f
12:20pm  -   -   -  22 27 mph 1003.4mb 59f 64f
11:50am  -   -   -  22 27 mph 1003.7mb 59f 64f
11:20am  -   -   -  20 27 mph 1004mb 59f 64f
10:50am  -   -   -  25 34 mph 1003.6mb 59f 63f
10:20am  -   -   -  16 25 mph 1003.9mb 59f 62f
9:50am 9ft 10s 7s 20 27 mph 1003.7mb 58f 62f
9:20am  -   -   -  16 20 mph 1003.7mb 58f 58f
8:50am 8.5ft 10s 7s 16 20 mph 1003.6mb 58f 58f
8:20am  -   -   -  13 18 mph 1003.6mb 58f 58f
7:50am 8ft 11s 7s 13 16 mph 1003.5mb 58f 59f
7:20am  -   -   -  13 18 mph 1003.8mb 58f 59f
6:50am 7ft 11s 8s 13 16 mph 1004.1mb 58f 59f
6:20am  -   -   -  13 18 mph 1004.2mb 58f 59f
5:50am 6.5ft 11s 8s 13 18 mph 1004.7mb 58f 58f
5:20am  -   -   -  16 18 mph 1004.8mb 58f 58f
4:50am 5.5ft 11s 7s 20 22 mph 1004.8mb 58f 58f
4:20am  -   -   -  20 25 mph 1005mb 58f 58f
3:50am 6ft 11s 8s 20 22 mph 1005.6mb 58f 58f
3:20am  -   -   -  11 13 mph 1007mb 58f 58f
2:50am 6ft 10s 7s 9 11 mph 1007.2mb 58f 58f
2:20am  -   -   -  9 11 mph 1007.3mb 58f 58f
1:50am 6.5ft 11s 7s 11 16 mph 1007.1mb 58f 58f
1:20am  -   -   -  13 16 mph 1006.7mb 58f 58f
12:50am 6ft 9s 7s 18 22 mph 1006.5mb 58f 58f
12:20am  -   -   -  20 22 mph 1006.8mb 58f 58f
Sat 10/18 11:50pm 6ft 8s 7s 20 25 mph 1007.1mb 58f 58f
11:20pm  -   -   -  16 20 mph 1007.4mb 58f 58f
10:50pm 6ft 10s 7s 16 18 mph 1007.7mb 58f 58f
10:20pm  -   -   -  16 18 mph 1007.8mb 58f 58f
9:50pm 7ft 10s 8s 13 16 mph 1008.3mb 58f 57f
9:20pm  -   -   -  16 20 mph 1008.4mb 58f 58f
8:50pm 6ft 9s 7s 18 22 mph 1008.8mb 58f 58f
8:20pm  -   -   -  16 20 mph 1009.1mb 58f 59f
7:50pm 6ft 10s 8s 13 18 mph 1009.3mb 58f 59f
7:20pm  -   -   -  13 18 mph 1009.6mb 58f 59f
6:50pm 6ft 10s 8s 13 16 mph 1010mb 58f 59f
6:20pm  -   -   -  13 16 mph 1010.2mb 58f 59f
5:50pm 6ft 10s 8s 13 16 mph 1010.8mb 58f 58f
5:20pm  -   -   -  11 13 mph 1011.1mb 58f 58f
4:50pm 6ft 11s 8s 11 13 mph 1011.3mb 58f 60f
4:20pm  -   -   -  9 11 mph 1011.8mb 58f 60f
3:50pm 6ft 11s 8s 11 13 mph 1011.8mb 58f 60f
3:20pm  -   -   -  13 16 mph 1012.1mb 59f 62f
2:50pm 6ft 11s 7s 9 16 mph 1012.3mb 58f 61f
2:20pm  -   -   -  11 13 mph 1012.3mb 58f 61f
1:50pm 6.5ft 11s 8s 11 18 mph 1012.1mb 58f 61f
1:20pm  -   -   -  7 9 mph 1012.3mb 58f 60f
12:50pm 6ft 11s 8s 7 9 mph 1012.2mb 58f 60f
12:20pm  -   -   -  9 13 mph 1011.8mb 58f 60f
11:50am 6ft 11s 7s 9 11 mph 1011.8mb 58f 59f
11:20am  -   -   -  9 11 mph 1011.5mb 58f 60f
10:50am 6.5ft 11s 7s 11 13 mph 1011.3mb 58f 59f
10:20am  -   -   -  13 16 mph 1011.3mb 58f 61f
9:50am 7ft 11s 7s 13 18 mph 1011.1mb 58f 61f
9:20am  -   -   -  16 22 mph 1010.9mb 58f 60f
8:50am 7ft 11s 7s 16 20 mph 1010.6mb 58f 60f
8:20am  -   -   -  16 20 mph 1010.2mb 58f 60f
7:50am 8ft 10s 8s 9 16 mph 1010.3mb 58f 60f
7:20am  -   -   -  13 16 mph 1010.2mb 58f 60f
6:50am 6.5ft 9s 8s 11 13 mph 1010mb 58f 60f
6:20am  -   -   -  7 13 mph 1009.8mb 58f 58f
5:50am 7.5ft 11s 8s 13 16 mph 1009.9mb 58f 58f
5:20am  -   -   -  16 18 mph 1009.6mb 58f 59f
4:50am 8ft 11s 9s 18 20 mph 1009.5mb 58f 58f
4:20am  -   -   -  13 16 mph 1009.4mb 58f 59f
3:50am 7ft 11s 9s 11 13 mph 1009.4mb 58f 59f
3:20am  -   -   -  11 13 mph 1009.4mb 58f 59f
2:50am 7ft 11s 9s 11 13 mph 1009.3mb 58f 59f
2:20am  -   -   -  9 11 mph 1009mb 58f 59f
1:50am 7ft 10s 8s 11 13 mph 1008.7mb 58f 59f
1:20am  -   -   -  11 16 mph 1008.5mb 58f 59f
12:50am 7.5ft 11s 8s 11 16 mph 1008.1mb 58f 59f
12:20am  -   -   -  13 16 mph 1007.7mb 58f 60f
Fri 10/17 11:50pm 6.5ft 11s 7s 16 22 mph 1007.5mb 58f 60f
11:20pm  -   -   -  16 20 mph 1007.1mb 58f 60f
10:50pm 6.5ft 11s 7s 20 22 mph 1006.6mb 58f 60f
10:20pm  -   -   -  20 25 mph 1006.2mb 58f 60f
9:50pm 6.5ft 12s 7s 20 25 mph 1005.9mb 58f 61f
9:20pm  -   -   -  20 25 mph 1005.6mb 58f 61f
8:50pm 8ft 11s 7s 20 25 mph 1005.3mb 57f 61f
8:20pm  -   -   -  18 22 mph 1005.2mb 58f 61f
7:50pm 7.5ft 12s 7s 20 25 mph 1004.8mb 58f 61f
7:20pm  -   -   -  18 22 mph 1004.3mb 58f 60f
6:50pm 9ft 12s 8s 18 25 mph 1003.8mb 58f 60f
6:20pm  -   -   -  16 22 mph 1003.4mb 58f 60f
5:50pm 9ft 12s 8s 18 22 mph 1003mb 58f 60f
5:20pm  -   -   -  22 27 mph 1002.8mb 58f 61f
4:50pm 11ft 13s 8s 20 25 mph 1003mb 58f 61f
4:20pm  -   -   -  20 25 mph 1003mb 58f 61f
3:50pm 11.5ft 12s 8s 25 29 mph 1002.7mb 58f 61f
3:20pm  -   -   -  22 27 mph 1002.7mb 58f 61f
2:50pm 11ft 12s 8s 20 25 mph 1002.5mb 58f 61f
2:20pm  -   -   -  20 25 mph 1002.4mb 58f 61f
1:50pm 11ft 12s 8s 18 20 mph 1002.3mb 58f 58f
1:20pm  -   -   -  18 22 mph 1002.4mb 58f 56f
12:50pm 11ft 12s 9s 20 25 mph 1002.6mb 58f 56f
12:20pm  -   -   -  22 29 mph 1002.3mb 58f 56f
11:50am  -   -   -  20 25 mph 1002.2mb 58f 55f
11:20am  -   -   -  20 27 mph 1002mb 58f 55f
10:50am 9ft 12s 8s 22 27 mph 1001.9mb 58f 55f
10:20am  -   -   -  25 29 mph 1002.5mb 58f 56f
9:50am 11ft 11s 8s 20 25 mph 1003.2mb 58f 55f
9:20am  -   -   -  20 27 mph 1003.2mb 58f 56f
8:50am 11ft 12s 8s 22 27 mph 1003.2mb 58f 56f
8:20am  -   -   -  22 31 mph 1003.5mb 58f 56f
7:50am 10ft 11s 8s 22 27 mph 1004.1mb 58f 56f
7:20am  -   -   -  20 25 mph 1004.6mb 58f 55f
6:50am 10ft 11s 8s 20 25 mph 1004.5mb 58f 56f
6:20am  -   -   -  18 22 mph 1004.5mb 58f 55f